Time;durP1;ratioP1;P1;durP2;ratioP2;P2;SDS_P1;SDS_P2;PMS_P1;PMS_P2;Temp;Humidity;BMP_temperature;BMP_pressure;BME280_temperature;BME280_humidity;BME280_pressure;Samples;Min_cycle;Max_cycle;Signal;HPM_P1;HPM_P2
2022/10/19 00:01:07;;;;;;;5.50;1.95;;;9.70;99.90;;;;;;5052494;28;20084;-68
2022/10/19 00:03:34;;;;;;;6.32;2.40;;;9.90;99.90;;;;;;5079829;28;20048;-68
2022/10/19 00:06:08;;;;;;;6.15;2.50;;;9.90;99.90;;;;;;5059430;28;20052;-68
2022/10/19 00:08:34;;;;;;;9.43;2.70;;;10.10;99.90;;;;;;5085957;28;20056;-68
2022/10/19 00:11:00;;;;;;;8.32;2.60;;;10.10;99.90;;;;;;5073719;28;20131;-68
2022/10/19 00:13:26;;;;;;;7.38;3.17;;;10.10;99.90;;;;;;5088745;28;20033;-68
2022/10/19 00:15:52;;;;;;;6.20;2.60;;;10.00;99.90;;;;;;5071581;28;20049;-68
2022/10/19 00:18:17;;;;;;;7.28;2.70;;;10.00;99.90;;;;;;5052307;28;20036;-68
2022/10/19 00:20:43;;;;;;;8.57;2.90;;;10.00;99.90;;;;;;5067321;28;20500;-67
2022/10/19 00:23:09;;;;;;;5.78;2.92;;;10.00;99.90;;;;;;5052903;28;20052;-67
2022/10/19 00:25:35;;;;;;;6.00;2.50;;;10.00;99.90;;;;;;5073444;28;20095;-68
2022/10/19 00:28:01;;;;;;;9.73;2.53;;;9.90;99.90;;;;;;5066783;28;20056;-68
2022/10/19 00:30:27;;;;;;;6.68;2.30;;;10.00;99.90;;;;;;5065137;28;20064;-68
2022/10/19 00:32:52;;;;;;;8.27;3.20;;;10.00;99.90;;;;;;5062096;28;20383;-68
2022/10/19 00:35:18;;;;;;;10.30;3.10;;;10.00;99.90;;;;;;5063447;28;20048;-68
2022/10/19 00:37:44;;;;;;;5.95;2.33;;;10.00;99.90;;;;;;5062526;28;20040;-67
2022/10/19 00:40:10;;;;;;;7.00;2.47;;;10.10;99.90;;;;;;5060771;28;20076;-68
2022/10/19 00:42:36;;;;;;;7.03;2.10;;;10.10;99.90;;;;;;5065290;28;20048;-68
2022/10/19 00:45:10;;;;;;;8.55;2.40;;;10.10;99.90;;;;;;5045306;28;20049;-67
2022/10/19 00:47:35;;;;;;;6.53;2.92;;;10.10;99.90;;;;;;5066681;28;20069;-67
2022/10/19 00:50:02;;;;;;;5.65;2.70;;;10.10;99.90;;;;;;5064872;28;20102;-68
2022/10/19 00:52:28;;;;;;;7.10;2.45;;;10.10;99.90;;;;;;5061883;28;20076;-68
2022/10/19 00:54:56;;;;;;;12.13;2.63;;;10.10;99.90;;;;;;5067492;28;20052;-68
2022/10/19 00:57:25;;;;;;;7.18;2.58;;;10.20;99.90;;;;;;5066542;28;20044;-68
2022/10/19 00:59:50;;;;;;;8.88;2.50;;;10.20;99.90;;;;;;5066929;28;20048;-68
2022/10/19 01:02:16;;;;;;;8.65;2.55;;;10.30;99.90;;;;;;5064520;28;20057;-68
2022/10/19 01:04:47;;;;;;;6.20;2.45;;;10.30;99.90;;;;;;5061874;28;20053;-67
2022/10/19 01:07:13;;;;;;;10.68;2.83;;;10.30;99.90;;;;;;5065064;28;20044;-68
2022/10/19 01:09:39;;;;;;;6.45;2.40;;;10.30;99.90;;;;;;5063215;28;20061;-68
2022/10/19 01:12:36;;;;;;;6.20;2.45;;;10.30;99.90;;;;;;5061700;28;20102;-68
2022/10/19 01:15:20;;;;;;;4.78;2.30;;;10.40;99.90;;;;;;5058158;28;20053;-68
2022/10/19 01:18:11;;;;;;;5.88;2.55;;;10.50;99.90;;;;;;5049874;28;20082;-68
2022/10/19 01:21:11;;;;;;;5.65;2.40;;;10.40;99.90;;;;;;5060732;28;20045;-68
2022/10/19 01:23:48;;;;;;;8.80;2.40;;;10.50;99.90;;;;;;5060431;28;20079;-68
2022/10/19 01:26:53;;;;;;;10.98;2.83;;;10.40;99.90;;;;;;5065175;28;20112;-67
2022/10/19 01:29:24;;;;;;;9.23;2.28;;;10.40;99.90;;;;;;4983489;28;20097;-69
2022/10/19 01:32:02;;;;;;;9.30;2.40;;;10.40;99.90;;;;;;4971636;28;20090;-68
2022/10/19 01:34:41;;;;;;;7.47;2.00;;;10.50;99.90;;;;;;4968558;28;20047;-68
2022/10/19 01:37:39;;;;;;;7.93;2.50;;;10.50;99.90;;;;;;4968897;28;20435;-68
2022/10/19 01:40:28;;;;;;;6.35;2.22;;;10.50;99.90;;;;;;4970989;28;20293;-67
2022/10/19 01:43:03;;;;;;;7.72;2.30;;;10.60;99.90;;;;;;4968584;28;20059;-68
2022/10/19 01:46:07;;;;;;;5.65;2.10;;;10.60;99.90;;;;;;4968812;28;20597;-68
2022/10/19 01:48:36;;;;;;;7.60;1.85;;;10.70;99.90;;;;;;4972060;28;20050;-68
2022/10/19 01:51:12;;;;;;;4.47;1.88;;;10.70;99.90;;;;;;4969966;28;20141;-68
2022/10/19 01:53:43;;;;;;;7.75;2.42;;;10.70;99.90;;;;;;4968514;28;20531;-68
2022/10/19 01:56:11;;;;;;;5.30;1.70;;;10.70;99.90;;;;;;4988889;28;20137;-67
2022/10/19 01:58:38;;;;;;;4.47;1.92;;;10.70;99.90;;;;;;4971747;28;20054;-68
2022/10/19 02:01:07;;;;;;;9.57;2.13;;;10.70;99.90;;;;;;4994843;28;20051;-68
2022/10/19 02:03:35;;;;;;;5.70;1.90;;;10.80;99.90;;;;;;4976884;28;20081;-68
2022/10/19 02:06:05;;;;;;;6.15;1.98;;;10.70;99.90;;;;;;5012999;28;20112;-68
2022/10/19 02:08:37;;;;;;;;;;;10.80;99.90;;;;;;5083759;28;20044;-68
2022/10/19 02:11:03;;;;;;;9.38;2.30;;;10.70;99.90;;;;;;5084613;28;19920;-68
2022/10/19 02:13:30;;;;;;;6.70;2.08;;;10.80;99.90;;;;;;5086909;28;20048;-68
2022/10/19 02:16:00;;;;;;;8.75;2.25;;;10.70;99.90;;;;;;5089119;28;20044;-68
2022/10/19 02:18:35;;;;;;;11.15;2.22;;;10.70;99.90;;;;;;5085015;28;20056;-68
2022/10/19 02:21:03;;;;;;;4.95;2.38;;;10.80;99.90;;;;;;5066050;28;20053;-68
2022/10/19 02:23:28;;;;;;;6.80;2.05;;;10.70;99.90;;;;;;5087073;28;20150;-68
2022/10/19 02:25:55;;;;;;;5.65;2.08;;;10.70;99.90;;;;;;5068051;28;20052;-68
2022/10/19 02:28:22;;;;;;;9.30;2.40;;;10.70;99.90;;;;;;5085787;28;20052;-68
2022/10/19 02:30:48;;;;;;;11.10;1.90;;;10.70;99.90;;;;;;5086993;28;20040;-68
2022/10/19 02:33:15;;;;;;;6.68;2.00;;;10.70;99.90;;;;;;5079683;28;20055;-68
2022/10/19 02:35:41;;;;;;;13.45;2.47;;;10.70;99.90;;;;;;5083071;28;20045;-68
2022/10/19 02:38:10;;;;;;;4.60;1.77;;;10.70;99.90;;;;;;5065873;28;20044;-67
2022/10/19 02:40:44;;;;;;;5.65;1.77;;;10.70;99.90;;;;;;5081648;28;20067;-68
2022/10/19 02:43:13;;;;;;;5.70;2.13;;;10.80;99.90;;;;;;5067520;28;20052;-67
2022/10/19 02:45:49;;;;;;;8.70;1.83;;;10.80;99.90;;;;;;5067794;28;20045;-68
2022/10/19 02:48:22;;;;;;;9.60;1.70;;;10.70;99.90;;;;;;5068060;28;20060;-68
2022/10/19 02:50:48;;;;;;;6.20;1.60;;;10.80;99.90;;;;;;5070245;28;20051;-68
2022/10/19 02:53:14;;;;;;;7.93;2.40;;;10.90;99.90;;;;;;5083794;28;20055;-68
2022/10/19 02:55:41;;;;;;;5.63;1.98;;;11.00;99.90;;;;;;5084889;28;20045;-68
2022/10/19 02:58:07;;;;;;;7.75;2.17;;;11.00;99.90;;;;;;5067788;28;20036;-68
2022/10/19 03:00:33;;;;;;;8.13;2.05;;;11.00;99.90;;;;;;5066748;28;20052;-67
2022/10/19 03:02:58;;;;;;;10.75;1.92;;;11.00;99.90;;;;;;5067417;28;20049;-68
2022/10/19 03:05:24;;;;;;;5.53;1.50;;;10.90;99.90;;;;;;5089687;28;20047;-68
2022/10/19 03:07:50;;;;;;;7.10;2.05;;;10.80;99.90;;;;;;5070272;28;20044;-67
2022/10/19 03:10:15;;;;;;;6.35;1.98;;;10.80;99.90;;;;;;5090178;28;20051;-68
2022/10/19 03:12:41;;;;;;;11.00;2.08;;;10.80;99.90;;;;;;5066062;28;20052;-68
2022/10/19 03:15:08;;;;;;;6.75;1.58;;;10.70;99.90;;;;;;5073209;28;20043;-67
2022/10/19 03:17:34;;;;;;;7.22;1.85;;;10.60;99.90;;;;;;5070527;28;20052;-68
2022/10/19 03:20:00;;;;;;;5.90;1.67;;;10.70;99.90;;;;;;5071010;28;20036;-68
2022/10/19 03:22:25;;;;;;;5.45;1.60;;;10.60;99.90;;;;;;5070445;28;20104;-68
2022/10/19 03:24:51;;;;;;;6.50;1.80;;;10.50;99.90;;;;;;5050432;28;20424;-68
2022/10/19 03:27:17;;;;;;;6.75;1.95;;;10.60;99.90;;;;;;5074391;28;20106;-68
2022/10/19 03:29:42;;;;;;;4.07;1.30;;;10.50;99.90;;;;;;5071170;28;20040;-68
2022/10/19 03:32:08;;;;;;;4.07;1.60;;;10.50;99.90;;;;;;5087005;28;20040;-68
2022/10/19 03:34:34;;;;;;;5.38;1.88;;;10.40;99.90;;;;;;5053202;28;20044;-68
2022/10/19 03:36:59;;;;;;;7.18;1.55;;;10.40;99.90;;;;;;5085459;28;20052;-68
2022/10/19 03:39:25;;;;;;;8.20;1.90;;;10.40;99.90;;;;;;5084315;28;20054;-68
2022/10/19 03:41:51;;;;;;;11.07;2.80;;;10.30;99.90;;;;;;5086422;28;20045;-68
2022/10/19 03:44:16;;;;;;;5.57;1.83;;;10.50;99.90;;;;;;5068565;28;20079;-68
2022/10/19 03:46:42;;;;;;;6.00;1.40;;;10.40;99.90;;;;;;5082767;28;20045;-68
2022/10/19 03:49:08;;;;;;;6.50;2.17;;;10.40;99.90;;;;;;5068537;28;20086;-67
2022/10/19 03:51:35;;;;;;;4.70;1.73;;;10.40;99.90;;;;;;5083294;28;20044;-67
2022/10/19 03:54:07;;;;;;;10.23;1.92;;;10.40;99.90;;;;;;5088114;28;20492;-68
2022/10/19 03:56:34;;;;;;;6.95;1.65;;;10.40;99.90;;;;;;5086644;28;20045;-68
2022/10/19 03:59:01;;;;;;;5.45;1.58;;;10.40;99.90;;;;;;5075085;28;20055;-67
2022/10/19 04:01:35;;;;;;;4.43;1.40;;;10.20;99.90;;;;;;5071092;28;20048;-68
2022/10/19 04:04:05;;;;;;;12.35;2.30;;;10.20;99.90;;;;;;5088214;28;20071;-68
2022/10/19 04:06:33;;;;;;;5.17;1.70;;;10.20;99.90;;;;;;5086400;28;20123;-68
2022/10/19 04:08:59;;;;;;;7.63;2.33;;;10.20;99.90;;;;;;5088311;28;20036;-67
2022/10/19 04:11:29;;;;;;;7.25;1.70;;;10.20;99.90;;;;;;5090928;28;20056;-68
2022/10/19 04:13:56;;;;;;;9.52;1.65;;;10.20;99.90;;;;;;5087517;28;20036;-68
2022/10/19 04:16:24;;;;;;;9.30;1.90;;;10.20;99.90;;;;;;5086276;28;20048;-68
2022/10/19 04:18:50;;;;;;;9.02;1.90;;;10.30;99.90;;;;;;5082591;28;20068;-68
2022/10/19 04:21:23;;;;;;;3.95;1.77;;;10.40;99.90;;;;;;5086166;28;20106;-68
2022/10/19 04:23:51;;;;;;;6.60;1.73;;;10.30;99.90;;;;;;5068670;28;20053;-67
2022/10/19 04:26:18;;;;;;;8.30;1.88;;;10.40;99.90;;;;;;5052748;28;20622;-68
2022/10/19 04:28:44;;;;;;;7.32;1.92;;;10.30;99.90;;;;;;5070058;28;20545;-68
2022/10/19 04:31:11;;;;;;;5.68;2.22;;;10.40;99.90;;;;;;5087729;28;20029;-67
2022/10/19 04:33:37;;;;;;;6.35;1.83;;;10.30;99.90;;;;;;5069154;28;20048;-68
2022/10/19 04:36:05;;;;;;;5.70;1.70;;;10.30;99.90;;;;;;5071749;28;20100;-68
2022/10/19 04:38:31;;;;;;;2.80;1.60;;;10.30;99.90;;;;;;5068157;28;20108;-67
2022/10/19 04:41:09;;;;;;;4.85;1.55;;;10.30;99.90;;;;;;5086001;28;20036;-67
2022/10/19 04:43:35;;;;;;;5.68;1.50;;;10.20;99.90;;;;;;5088474;28;20198;-68
2022/10/19 04:46:03;;;;;;;5.43;1.45;;;10.20;99.90;;;;;;5081892;28;20045;-68
2022/10/19 04:48:29;;;;;;;6.40;1.70;;;10.30;99.90;;;;;;5082204;28;20045;-68
2022/10/19 04:50:58;;;;;;;12.73;2.45;;;10.30;99.90;;;;;;5087651;28;20048;-68
2022/10/19 04:53:23;;;;;;;4.40;1.40;;;10.30;99.90;;;;;;5073899;28;20082;-67
2022/10/19 04:55:49;;;;;;;2.88;1.73;;;10.30;99.90;;;;;;5066290;28;20076;-68
2022/10/19 04:58:15;;;;;;;4.03;1.30;;;10.20;99.90;;;;;;5066624;28;20047;-68
2022/10/19 05:00:41;;;;;;;4.97;1.60;;;10.20;99.90;;;;;;5070725;28;20049;-68
2022/10/19 05:03:06;;;;;;;8.57;1.60;;;10.10;99.90;;;;;;5067955;28;20102;-68
2022/10/19 05:05:33;;;;;;;7.07;1.60;;;10.00;99.90;;;;;;5068924;28;20044;-68
2022/10/19 05:07:59;;;;;;;5.07;1.50;;;10.00;99.90;;;;;;5084778;28;20104;-68
2022/10/19 05:10:25;;;;;;;5.00;1.40;;;10.00;99.90;;;;;;5086490;28;20106;-68
2022/10/19 05:12:50;;;;;;;4.32;1.70;;;10.00;99.90;;;;;;5067612;28;20075;-68
2022/10/19 05:15:16;;;;;;;4.07;1.60;;;9.90;99.90;;;;;;5087614;28;20044;-68
2022/10/19 05:17:42;;;;;;;3.65;1.60;;;9.90;99.90;;;;;;5071735;28;20138;-68
2022/10/19 05:20:10;;;;;;;4.25;1.38;;;9.80;99.90;;;;;;5085232;28;20041;-68
2022/10/19 05:22:36;;;;;;;6.55;1.83;;;9.80;99.90;;;;;;5070164;28;20111;-68
2022/10/19 05:25:02;;;;;;;6.07;1.92;;;9.70;99.90;;;;;;5069599;28;20071;-68
2022/10/19 05:27:27;;;;;;;5.22;1.80;;;9.80;99.90;;;;;;5080478;28;20491;-68
2022/10/19 05:29:53;;;;;;;9.05;2.55;;;9.70;99.90;;;;;;5068370;28;20078;-68
2022/10/19 05:32:19;;;;;;;7.90;1.52;;;9.80;99.90;;;;;;5068852;28;20075;-68
2022/10/19 05:34:44;;;;;;;12.20;2.33;;;9.80;99.90;;;;;;5086382;28;20057;-68
2022/10/19 05:37:10;;;;;;;7.88;2.95;;;9.90;99.90;;;;;;5068114;28;20131;-68
2022/10/19 05:39:36;;;;;;;6.90;2.50;;;9.90;99.90;;;;;;5082615;28;20047;-68
2022/10/19 05:42:01;;;;;;;7.38;2.45;;;10.00;99.90;;;;;;5067523;28;20056;-68
2022/10/19 05:44:27;;;;;;;11.88;3.13;;;10.10;99.90;;;;;;5069041;28;20044;-68
2022/10/19 05:46:53;;;;;;;11.95;2.78;;;10.20;99.90;;;;;;5067925;28;20052;-68
2022/10/19 05:49:21;;;;;;;5.93;2.15;;;10.20;99.90;;;;;;5068644;28;20060;-68
2022/10/19 05:51:47;;;;;;;10.90;2.55;;;10.20;99.90;;;;;;5087800;28;20526;-68
2022/10/19 05:54:14;;;;;;;8.73;2.15;;;10.20;99.90;;;;;;5068745;28;20122;-68
2022/10/19 05:56:41;;;;;;;7.63;1.95;;;10.30;99.90;;;;;;5084938;28;20507;-68
2022/10/19 05:59:15;;;;;;;12.90;2.35;;;10.20;99.90;;;;;;5065513;28;20036;-68
2022/10/19 06:01:41;;;;;;;6.95;1.98;;;10.20;99.90;;;;;;5085931;28;20056;-68
2022/10/19 06:04:07;;;;;;;13.65;2.58;;;10.20;99.90;;;;;;5068375;28;20071;-68
2022/10/19 06:06:33;;;;;;;11.45;2.28;;;10.30;99.90;;;;;;5083878;28;20071;-68
2022/10/19 06:08:59;;;;;;;13.27;1.92;;;10.30;99.90;;;;;;5056580;28;20058;-68
2022/10/19 06:11:28;;;;;;;6.70;1.90;;;10.30;99.90;;;;;;5083766;28;20102;-68
2022/10/19 06:13:55;;;;;;;8.82;2.00;;;10.40;99.90;;;;;;5066769;28;20074;-68
2022/10/19 06:16:23;;;;;;;10.60;2.15;;;10.40;99.90;;;;;;5066153;28;20048;-66
2022/10/19 06:18:48;;;;;;;10.45;1.95;;;10.40;99.90;;;;;;5080036;28;20506;-68
2022/10/19 06:21:17;;;;;;;9.90;1.73;;;10.40;99.90;;;;;;5083698;28;20044;-69
2022/10/19 06:23:44;;;;;;;14.50;2.13;;;10.50;99.90;;;;;;5068580;28;20080;-67
2022/10/19 06:26:12;;;;;;;11.90;2.53;;;10.50;99.90;;;;;;5069114;28;20064;-67
2022/10/19 06:28:39;;;;;;;12.35;2.30;;;10.50;99.90;;;;;;5074347;28;20517;-67
2022/10/19 06:31:06;;;;;;;7.97;2.10;;;10.50;99.90;;;;;;5083010;28;20370;-67
2022/10/19 06:33:32;;;;;;;15.73;2.28;;;10.60;99.90;;;;;;5081507;28;20032;-67
2022/10/19 06:36:11;;;;;;;11.05;1.58;;;10.50;99.90;;;;;;5081836;28;20363;-67
2022/10/19 06:38:36;;;;;;;10.50;2.28;;;10.50;99.90;;;;;;5064628;28;20048;-67
2022/10/19 06:41:03;;;;;;;8.73;2.22;;;10.60;99.90;;;;;;5064405;28;20044;-67
2022/10/19 06:43:29;;;;;;;7.70;1.88;;;10.50;99.90;;;;;;5064768;28;20081;-67
2022/10/19 06:45:55;;;;;;;11.75;2.08;;;10.60;99.90;;;;;;5064446;28;20048;-67
2022/10/19 06:48:20;;;;;;;13.73;2.50;;;10.70;99.90;;;;;;5065434;28;20072;-67
2022/10/19 06:50:54;;;;;;;11.23;3.10;;;10.60;99.90;;;;;;5049072;28;20047;-67
2022/10/19 06:53:19;;;;;;;18.45;3.78;;;10.70;99.90;;;;;;5083528;28;20056;-67
2022/10/19 06:55:45;;;;;;;11.68;1.92;;;10.70;99.90;;;;;;5079616;28;20071;-67
2022/10/19 06:58:11;;;;;;;15.10;2.47;;;10.80;99.90;;;;;;5065418;28;20072;-68
2022/10/19 07:00:36;;;;;;;21.88;3.80;;;10.80;99.90;;;;;;5081991;28;20044;-68
2022/10/19 07:03:02;;;;;;;24.52;3.75;;;10.90;99.90;;;;;;5082147;28;20048;-68
2022/10/19 07:05:28;;;;;;;38.15;6.15;;;10.90;99.90;;;;;;5064806;28;20052;-68
2022/10/19 07:07:53;;;;;;;21.77;2.90;;;11.00;99.90;;;;;;5068093;28;20098;-68
2022/10/19 07:10:19;;;;;;;16.25;3.47;;;10.90;99.90;;;;;;5084128;28;20047;-71
2022/10/19 07:12:45;;;;;;;11.55;1.95;;;10.90;99.90;;;;;;5086456;28;20068;-66
2022/10/19 07:15:10;;;;;;;8.05;2.15;;;11.00;99.90;;;;;;5086742;28;20043;-64
2022/10/19 07:17:36;;;;;;;7.78;1.60;;;11.00;99.90;;;;;;5068579;28;20045;-65
2022/10/19 07:20:02;;;;;;;8.32;2.20;;;11.10;99.90;;;;;;5081036;28;20055;-65
2022/10/19 07:22:27;;;;;;;7.82;2.00;;;11.10;99.90;;;;;;5087394;28;20044;-65
2022/10/19 07:24:53;;;;;;;9.18;1.65;;;11.20;99.90;;;;;;5081969;28;20396;-65
2022/10/19 07:27:19;;;;;;;11.13;1.70;;;11.30;99.90;;;;;;5046971;28;20049;-65
2022/10/19 07:29:44;;;;;;;15.20;2.33;;;11.30;99.90;;;;;;5065031;28;20045;-65
2022/10/19 07:32:10;;;;;;;17.13;3.28;;;11.30;99.90;;;;;;5067461;28;20041;-65
2022/10/19 07:34:36;;;;;;;12.35;2.10;;;11.40;99.90;;;;;;5045782;28;20517;-62
2022/10/19 07:37:01;;;;;;;12.60;2.20;;;11.40;99.90;;;;;;5050648;28;20420;-62
2022/10/19 07:39:27;;;;;;;14.48;2.22;;;11.50;99.90;;;;;;5028184;28;20064;-64
2022/10/19 07:41:53;;;;;;;10.38;2.30;;;11.50;99.90;;;;;;5061808;28;20064;-62
2022/10/19 07:44:18;;;;;;;11.55;2.10;;;11.50;99.90;;;;;;5012361;28;20049;-63
2022/10/19 07:46:44;;;;;;;13.32;2.80;;;11.50;99.90;;;;;;5030488;28;20477;-63
2022/10/19 07:49:15;;;;;;;9.38;1.75;;;11.60;99.90;;;;;;5028188;28;20053;-63
2022/10/19 07:51:41;;;;;;;12.43;2.30;;;11.60;99.90;;;;;;5057078;28;20037;-63
2022/10/19 07:54:07;;;;;;;8.13;1.63;;;11.70;99.90;;;;;;5038700;28;20497;-61
2022/10/19 07:56:33;;;;;;;9.05;1.75;;;11.60;99.90;;;;;;5048284;28;20048;-63
2022/10/19 07:59:00;;;;;;;13.57;2.10;;;11.70;99.90;;;;;;5060512;28;20102;-68
2022/10/19 08:01:28;;;;;;;11.02;2.28;;;11.80;99.90;;;;;;5051303;28;20056;-65
2022/10/19 08:03:56;;;;;;;9.05;2.13;;;11.80;99.90;;;;;;5039227;28;20052;-63
2022/10/19 08:06:23;;;;;;;12.65;2.92;;;11.80;99.90;;;;;;5027064;28;20071;-65
2022/10/19 08:08:49;;;;;;;7.20;2.00;;;11.90;99.90;;;;;;5028449;28;20045;-63
2022/10/19 08:11:18;;;;;;;12.15;2.40;;;11.90;99.90;;;;;;5059420;28;20045;-62
2022/10/19 08:13:44;;;;;;;15.07;3.03;;;12.00;99.90;;;;;;5031622;28;20045;-62
2022/10/19 08:16:26;;;;;;;19.08;2.80;;;12.00;99.90;;;;;;5059106;28;20052;-62
2022/10/19 08:18:57;;;;;;;9.27;2.03;;;12.00;99.90;;;;;;5024663;28;20056;-64
2022/10/19 08:21:24;;;;;;;9.05;2.20;;;12.10;99.90;;;;;;5030744;28;20148;-63
2022/10/19 08:23:49;;;;;;;13.18;2.92;;;12.20;99.90;;;;;;5042401;28;20053;-62
2022/10/19 08:26:15;;;;;;;8.07;2.35;;;12.20;99.90;;;;;;5051808;28;20282;-63
2022/10/19 08:28:41;;;;;;;13.35;2.30;;;12.30;99.90;;;;;;5033156;28;20051;-63
2022/10/19 08:31:12;;;;;;;12.77;2.13;;;12.30;99.90;;;;;;5041736;28;20045;-63
2022/10/19 08:33:38;;;;;;;10.20;2.30;;;12.40;99.90;;;;;;5031276;28;20064;-63
2022/10/19 08:36:08;;;;;;;9.20;2.00;;;12.40;99.90;;;;;;5043278;28;20052;-63
2022/10/19 08:38:35;;;;;;;9.10;1.88;;;12.50;99.90;;;;;;5026165;28;20057;-64
2022/10/19 08:41:35;;;;;;;7.55;1.73;;;12.50;99.90;;;;;;5058318;28;20069;-64
2022/10/19 08:44:16;;;;;;;9.85;1.90;;;12.50;99.90;;;;;;5009407;28;20048;-64
2022/10/19 08:47:21;;;;;;;7.28;1.50;;;12.60;99.90;;;;;;5055581;28;20049;-65
2022/10/19 08:49:47;;;;;;;8.68;2.05;;;12.60;99.90;;;;;;5042702;28;20080;-64
2022/10/19 08:52:18;;;;;;;9.52;2.17;;;12.70;99.90;;;;;;5031677;28;20491;-64
2022/10/19 08:54:52;;;;;;;8.93;2.30;;;12.70;99.90;;;;;;5050104;28;20088;-63
2022/10/19 08:57:38;;;;;;;9.60;2.65;;;12.70;99.90;;;;;;5052784;28;20045;-64
2022/10/19 09:00:11;;;;;;;10.50;2.13;;;12.80;99.90;;;;;;5038079;28;20056;-65
2022/10/19 09:03:12;;;;;;;9.90;2.47;;;12.90;99.90;;;;;;5046978;28;20049;-64
2022/10/19 09:05:47;;;;;;;9.40;2.20;;;12.90;99.90;;;;;;5027910;28;20107;-63
2022/10/19 09:08:13;;;;;;;12.57;2.80;;;13.00;99.90;;;;;;5043760;28;20103;-65
2022/10/19 09:10:46;;;;;;;8.02;1.80;;;13.00;99.90;;;;;;5041175;28;20032;-64
2022/10/19 09:13:24;;;;;;;11.98;2.35;;;13.00;99.90;;;;;;5027780;28;20049;-63
2022/10/19 09:15:51;;;;;;;7.93;1.52;;;13.10;99.90;;;;;;5059884;28;20049;-63
2022/10/19 09:18:26;;;;;;;8.73;1.55;;;13.10;99.90;;;;;;5050071;28;20051;-64
2022/10/19 09:21:01;;;;;;;9.90;2.00;;;13.10;99.90;;;;;;5045328;28;20675;-63
2022/10/19 09:23:40;;;;;;;11.63;1.85;;;13.20;99.90;;;;;;5028876;28;20072;-62
2022/10/19 09:26:16;;;;;;;9.98;1.67;;;13.20;99.90;;;;;;5061489;28;20053;-64
2022/10/19 09:29:19;;;;;;;7.95;2.05;;;13.20;99.90;;;;;;5036469;28;20072;-63
2022/10/19 09:31:45;;;;;;;8.32;2.03;;;13.20;99.90;;;;;;5055807;28;20085;-62
2022/10/19 09:34:20;;;;;;;10.73;1.48;;;13.30;99.90;;;;;;5024172;28;20164;-64
2022/10/19 09:36:51;;;;;;;10.18;1.52;;;13.30;99.90;;;;;;5035147;28;20080;-63
2022/10/19 09:39:18;;;;;;;7.40;1.30;;;13.30;99.90;;;;;;5057274;28;20052;-63
2022/10/19 09:41:54;;;;;;;6.25;1.65;;;13.40;99.90;;;;;;5053218;28;20044;-63
2022/10/19 09:44:22;;;;;;;6.55;1.25;;;13.40;99.90;;;;;;5027867;28;20080;-62
2022/10/19 09:47:01;;;;;;;7.35;1.90;;;13.40;99.90;;;;;;5048146;28;20056;-62
2022/10/19 09:49:47;;;;;;;7.55;2.13;;;13.40;99.90;;;;;;5047071;28;20053;-62
2022/10/19 09:52:22;;;;;;;6.55;1.70;;;13.50;99.90;;;;;;5039097;28;20129;-62
2022/10/19 09:54:58;;;;;;;8.38;1.67;;;13.50;99.90;;;;;;5050130;28;20584;-62
2022/10/19 09:57:24;;;;;;;8.77;1.70;;;13.50;99.90;;;;;;5050528;28;20230;-63
2022/10/19 09:59:54;;;;;;;14.98;2.00;;;13.60;99.90;;;;;;5056470;28;20040;-67
2022/10/19 10:02:37;;;;;;;11.85;1.77;;;13.50;99.90;;;;;;5035466;28;20090;-66
2022/10/19 10:05:06;;;;;;;9.63;2.05;;;13.60;99.90;;;;;;5040699;28;20053;-67
2022/10/19 10:07:37;;;;;;;8.95;1.38;;;13.50;99.90;;;;;;5032627;28;20064;-66
2022/10/19 10:10:28;;;;;;;8.70;2.00;;;13.50;99.90;;;;;;5032967;28;20052;-66
2022/10/19 10:12:56;;;;;;;6.72;1.30;;;13.60;99.90;;;;;;5035126;28;20056;-65
2022/10/19 10:15:25;;;;;;;8.38;1.52;;;13.60;99.90;;;;;;5050990;28;20082;-68
2022/10/19 10:17:51;;;;;;;7.50;1.38;;;13.60;99.90;;;;;;5041930;28;20110;-66
2022/10/19 10:20:31;;;;;;;11.13;1.95;;;13.60;99.90;;;;;;5062210;28;20032;-66
2022/10/19 10:23:03;;;;;;;7.00;1.70;;;13.70;99.90;;;;;;5028638;28;20629;-66
2022/10/19 10:25:32;;;;;;;5.80;1.42;;;13.80;99.90;;;;;;5042963;28;20157;-67
2022/10/19 10:28:01;;;;;;;6.43;1.75;;;13.80;99.90;;;;;;5020907;28;20070;-66
2022/10/19 10:30:32;;;;;;;4.23;1.57;;;13.80;99.90;;;;;;5043995;28;20053;-67
2022/10/19 10:32:59;;;;;;;10.32;2.28;;;13.90;99.90;;;;;;5047598;28;20074;-63
2022/10/19 10:35:34;;;;;;;12.80;2.08;;;13.90;99.90;;;;;;5054796;28;20048;-64
2022/10/19 10:38:22;;;;;;;8.95;1.80;;;13.90;99.90;;;;;;5034934;28;20134;-64
2022/10/19 10:40:56;;;;;;;7.10;2.03;;;13.90;99.90;;;;;;5050333;28;20048;-63
2022/10/19 10:43:29;;;;;;;8.20;1.65;;;13.90;99.90;;;;;;5038842;28;20076;-64
2022/10/19 10:46:06;;;;;;;10.98;2.13;;;13.90;99.90;;;;;;5045285;28;20046;-64
2022/10/19 10:48:38;;;;;;;7.05;1.55;;;13.90;99.90;;;;;;5059443;28;20038;-62
2022/10/19 10:51:19;;;;;;;7.75;1.60;;;13.90;99.90;;;;;;5053762;28;20069;-63
2022/10/19 10:53:45;;;;;;;4.90;1.80;;;14.00;99.90;;;;;;5041270;28;20052;-62
2022/10/19 10:56:22;;;;;;;7.68;1.88;;;14.00;99.90;;;;;;5041836;28;20055;-62
2022/10/19 10:59:03;;;;;;;6.43;1.70;;;14.00;99.90;;;;;;5043302;28;20044;-62
2022/10/19 11:01:36;;;;;;;9.70;2.13;;;14.10;99.90;;;;;;5045062;28;20081;-63
2022/10/19 11:04:21;;;;;;;12.85;1.92;;;14.10;99.90;;;;;;5045176;28;20056;-63
2022/10/19 11:06:53;;;;;;;4.43;1.55;;;14.10;99.90;;;;;;5044037;28;20040;-63
2022/10/19 11:09:41;;;;;;;11.85;2.58;;;14.10;99.90;;;;;;5045467;28;20041;-63
2022/10/19 11:12:13;;;;;;;9.15;1.58;;;14.20;99.90;;;;;;5063111;28;20045;-63
2022/10/19 11:14:49;;;;;;;9.90;2.70;;;14.20;99.90;;;;;;5063370;28;20083;-63
2022/10/19 11:17:23;;;;;;;6.93;1.52;;;14.20;99.90;;;;;;5045296;28;20107;-63
2022/10/19 11:19:50;;;;;;;7.03;1.50;;;14.30;99.90;;;;;;5063320;28;20045;-63
2022/10/19 11:22:30;;;;;;;10.48;1.65;;;14.30;99.90;;;;;;5063125;28;20087;-63
2022/10/19 11:25:05;;;;;;;5.03;1.50;;;14.40;99.90;;;;;;5047125;28;20128;-63
2022/10/19 11:27:47;;;;;;;8.90;1.83;;;14.30;99.90;;;;;;5060068;28;20052;-63
2022/10/19 11:30:14;;;;;;;10.13;1.65;;;14.40;99.90;;;;;;5084719;28;20048;-63
2022/10/19 11:32:51;;;;;;;8.77;1.60;;;14.40;99.90;;;;;;5067203;28;20053;-63
2022/10/19 11:35:42;;;;;;;6.07;1.70;;;14.40;99.90;;;;;;5059065;28;20052;-63
2022/10/19 11:38:31;;;;;;;10.00;1.33;;;14.40;99.90;;;;;;5056717;28;20072;-63
2022/10/19 11:41:16;;;;;;;8.05;2.15;;;14.40;99.90;;;;;;5050932;28;20505;-63
2022/10/19 11:43:56;;;;;;;8.90;1.50;;;14.40;99.90;;;;;;5050488;28;20513;-63
2022/10/19 11:46:46;;;;;;;7.57;2.08;;;14.40;99.90;;;;;;5067288;28;20041;-63
2022/10/19 11:49:16;;;;;;;5.85;1.30;;;14.40;99.90;;;;;;5066938;28;20095;-63
2022/10/19 11:51:56;;;;;;;5.63;2.08;;;14.40;99.90;;;;;;5049097;28;20057;-63
2022/10/19 11:54:54;;;;;;;4.93;1.33;;;14.30;99.90;;;;;;5049473;28;20044;-63
2022/10/19 11:57:28;;;;;;;7.07;1.35;;;14.30;99.90;;;;;;5057255;28;20040;-63
2022/10/19 12:00:14;;;;;;;7.75;1.13;;;14.30;99.90;;;;;;5067163;28;20111;-63
2022/10/19 12:02:52;;;;;;;6.60;1.40;;;14.30;99.90;;;;;;5049001;28;20520;-63
2022/10/19 12:05:30;;;;;;;6.25;1.30;;;14.30;99.90;;;;;;5046113;28;20732;-63
2022/10/19 12:08:02;;;;;;;8.75;1.92;;;14.30;99.90;;;;;;5055681;28;20072;-63
2022/10/19 12:10:49;;;;;;;11.20;2.25;;;14.30;99.90;;;;;;5047706;28;20075;-63
2022/10/19 12:13:20;;;;;;;11.43;2.45;;;14.30;99.90;;;;;;5072057;28;20052;-63
2022/10/19 12:15:54;;;;;;;6.82;1.35;;;14.40;99.90;;;;;;5065800;28;20040;-63
2022/10/19 12:18:37;;;;;;;8.82;1.40;;;14.40;99.90;;;;;;5045789;28;20049;-63
2022/10/19 12:21:32;;;;;;;7.05;1.30;;;14.30;99.90;;;;;;5048786;28;20374;-63
2022/10/19 12:24:01;;;;;;;4.97;1.10;;;14.30;99.90;;;;;;5048365;28;20185;-63
2022/10/19 12:26:33;;;;;;;5.03;1.40;;;14.30;99.90;;;;;;5059930;28;20139;-63
2022/10/19 12:29:21;;;;;;;9.80;1.42;;;14.40;99.90;;;;;;5066266;28;20037;-63
2022/10/19 12:31:48;;;;;;;6.80;1.48;;;14.40;99.90;;;;;;5063132;28;20053;-63
2022/10/19 12:34:26;;;;;;;8.20;1.48;;;14.40;99.90;;;;;;5083165;28;20041;-63
2022/10/19 12:36:54;;;;;;;8.60;2.05;;;14.40;99.90;;;;;;5070472;28;20044;-63
2022/10/19 12:39:43;;;;;;;5.57;1.40;;;14.50;99.90;;;;;;5060876;28;20071;-63
2022/10/19 12:42:43;;;;;;;4.93;2.08;;;14.50;99.90;;;;;;5068396;28;20052;-63
2022/10/19 12:45:21;;;;;;;6.65;1.80;;;14.50;99.90;;;;;;5077301;28;20123;-63
2022/10/19 12:48:11;;;;;;;7.72;1.70;;;14.50;99.90;;;;;;5086501;28;20052;-63
2022/10/19 12:50:51;;;;;;;8.50;2.05;;;14.60;99.90;;;;;;5068154;28;20045;-63
2022/10/19 12:53:24;;;;;;;10.25;1.95;;;14.60;99.90;;;;;;5068387;28;20044;-63
2022/10/19 12:56:16;;;;;;;7.63;2.17;;;14.70;99.90;;;;;;5086029;28;20052;-63
2022/10/19 12:58:51;;;;;;;6.63;2.28;;;14.70;99.90;;;;;;5069224;28;20045;-63
2022/10/19 13:01:39;;;;;;;6.82;2.80;;;14.80;99.90;;;;;;5067929;28;20052;-63
2022/10/19 13:04:21;;;;;;;7.95;2.88;;;15.40;99.90;;;;;;5068100;28;20048;-63
2022/10/19 13:07:06;;;;;;;7.68;2.85;;;15.80;99.90;;;;;;5068144;28;20087;-63